Terminal Aerodrome Forecast
Issued by NWS

Home | Current Version | Previous Version | Text Only | Print | Product List | Glossary On
Versions: 1 2 3 4 5 6 7 8 9 10 11 12 13 14
000
FTUS42 TJSJ 171720
TAFJPS
TAF
TJPS 171720Z 1718/1818 17006KT P6SM VCSH SCT017 BKN170
     FM180000 VRB02KT P6SM VCSH SCT025 BKN120
     FM181200 23005KT P6SM VCSH SCT025 BKN050
     FM181500 22008KT P6SM VCTS SCT025CB OVC100
      AMD NOT SKED TIL 180300=

USA.gov is the U.S. government's official web portal to all federal, state and local government web resources and services.